logo dgac
Miércoles 24 de Enero del 2018
Buscar por aerodromo o helipuerto
Ingrese nombre de aeródromo, localidad o designador OACI:
METAR del 24-01-2018 a las 09:00 UTC
METAR SCIP 240900Z 11011KT 9999 FEW020 BKN250 23/20 Q1021 NOSIG
Viento: dirección 110 grados, velocidad 11 nudos
Visibilidad: 10 km o más
Nubes: Escasa nubosidad a 2000 pies sobre el nivel del aeródromo
Nubes: Nublado a 25000 pies sobre el nivel del aeródromo
Temperatura: 23 °C
Rocío: 20 °C
Humedad_relativa: 83%
Presión: 1021 hPa
No se esperan cambios significativos en las próximas 2 horas
METAR del 24-01-2018 a las 08:00 UTC
METAR SCIP 240800Z 11010KT 9999 FEW020 SCT250 23/19 Q1021 NOSIG
Viento: dirección 110 grados, velocidad 10 nudos
Visibilidad: 10 km o más
Nubes: Escasa nubosidad a 2000 pies sobre el nivel del aeródromo
Nubes: Nubosidad parcial a 25000 pies sobre el nivel del aeródromo
Temperatura: 23 °C
Rocío: 19 °C
Humedad_relativa: 78%
Presión: 1021 hPa
No se esperan cambios significativos en las próximas 2 horas
METAR del 24-01-2018 a las 07:00 UTC
METAR SCIP 240700Z 11010KT 9999 FEW020 SCT250 23/19 Q1022 NOSIG
Viento: dirección 110 grados, velocidad 10 nudos
Visibilidad: 10 km o más
Nubes: Escasa nubosidad a 2000 pies sobre el nivel del aeródromo
Nubes: Nubosidad parcial a 25000 pies sobre el nivel del aeródromo
Temperatura: 23 °C
Rocío: 19 °C
Humedad_relativa: 78%
Presión: 1022 hPa
No se esperan cambios significativos en las próximas 2 horas
METAR del 24-01-2018 a las 06:00 UTC
METAR SCIP 240600Z 12013KT 9999 FEW020 BKN250 23/19 Q1022 NOSIG
Viento: dirección 120 grados, velocidad 13 nudos
Visibilidad: 10 km o más
Nubes: Escasa nubosidad a 2000 pies sobre el nivel del aeródromo
Nubes: Nublado a 25000 pies sobre el nivel del aeródromo
Temperatura: 23 °C
Rocío: 19 °C
Humedad_relativa: 78%
Presión: 1022 hPa
No se esperan cambios significativos en las próximas 2 horas
METAR del 24-01-2018 a las 05:00 UTC
METAR SCIP 240500Z 11013KT 9999 SCT025 BKN250 24/20 Q1022 NOSIG
Viento: dirección 110 grados, velocidad 13 nudos
Visibilidad: 10 km o más
Nubes: Nubosidad parcial a 2500 pies sobre el nivel del aeródromo
Nubes: Nublado a 25000 pies sobre el nivel del aeródromo
Temperatura: 24 °C
Rocío: 20 °C
Humedad_relativa: 78%
Presión: 1022 hPa
No se esperan cambios significativos en las próximas 2 horas
METAR del 24-01-2018 a las 04:00 UTC
METAR SCIP 240400Z 11014KT 9999 SCT020 BKN250 24/20 Q1022 NOSIG
Viento: dirección 110 grados, velocidad 14 nudos
Visibilidad: 10 km o más
Nubes: Nubosidad parcial a 2000 pies sobre el nivel del aeródromo
Nubes: Nublado a 25000 pies sobre el nivel del aeródromo
Temperatura: 24 °C
Rocío: 20 °C
Humedad_relativa: 78%
Presión: 1022 hPa
No se esperan cambios significativos en las próximas 2 horas
METAR del 24-01-2018 a las 03:00 UTC
METAR SCIP 240300Z 11013KT 9999 FEW020 BKN250 24/19 Q1022 NOSIG
Viento: dirección 110 grados, velocidad 13 nudos
Visibilidad: 10 km o más
Nubes: Escasa nubosidad a 2000 pies sobre el nivel del aeródromo
Nubes: Nublado a 25000 pies sobre el nivel del aeródromo
Temperatura: 24 °C
Rocío: 19 °C
Humedad_relativa: 74%
Presión: 1022 hPa
No se esperan cambios significativos en las próximas 2 horas
METAR del 24-01-2018 a las 02:00 UTC
METAR SCIP 240200Z 11014KT 9999 FEW020 BKN230 24/20 Q1021 NOSIG
Viento: dirección 110 grados, velocidad 14 nudos
Visibilidad: 10 km o más
Nubes: Escasa nubosidad a 2000 pies sobre el nivel del aeródromo
Nubes: Nublado a 23000 pies sobre el nivel del aeródromo
Temperatura: 24 °C
Rocío: 20 °C
Humedad_relativa: 78%
Presión: 1021 hPa
No se esperan cambios significativos en las próximas 2 horas
METAR del 24-01-2018 a las 01:00 UTC
METAR SCIP 240100Z 11015KT 9999 SCT020 BKN230 25/20 Q1021 NOSIG
Viento: dirección 110 grados, velocidad 15 nudos
Visibilidad: 10 km o más
Nubes: Nubosidad parcial a 2000 pies sobre el nivel del aeródromo
Nubes: Nublado a 23000 pies sobre el nivel del aeródromo
Temperatura: 25 °C
Rocío: 20 °C
Humedad_relativa: 74%
Presión: 1021 hPa
No se esperan cambios significativos en las próximas 2 horas
METAR del 24-01-2018 a las 00:00 UTC
METAR SCIP 240000Z 12015KT 9999 BKN020 BKN230 25/20 Q1021 NOSIG
Viento: dirección 120 grados, velocidad 15 nudos
Visibilidad: 10 km o más
Nubes: Nublado a 2000 pies sobre el nivel del aeródromo
Nubes: Nublado a 23000 pies sobre el nivel del aeródromo
Temperatura: 25 °C
Rocío: 20 °C
Humedad_relativa: 74%
Presión: 1021 hPa
No se esperan cambios significativos en las próximas 2 horas